createdAt,value
2023-02-05T00:02:13.619Z,101356.63
2023-02-05T00:04:41.148Z,101365.09
2023-02-05T00:07:08.497Z,101368.25
2023-02-05T00:09:36.843Z,101357.84
2023-02-05T00:12:04.429Z,101358.81
2023-02-05T00:14:31.730Z,101367.25
2023-02-05T00:16:58.935Z,101372.53
2023-02-05T00:19:26.290Z,101370.13
2023-02-05T00:21:53.473Z,101373.09
2023-02-05T00:24:20.726Z,101385.50
2023-02-05T00:26:47.962Z,101373.66
2023-02-05T00:29:15.236Z,101376.34
2023-02-05T00:31:42.537Z,101385.94
2023-02-05T00:34:09.950Z,101384.19
2023-02-05T00:36:37.161Z,101387.28
2023-02-05T00:39:04.595Z,101391.41
2023-02-05T00:41:32.019Z,101399.59
2023-02-05T00:43:59.334Z,101387.41
2023-02-05T00:46:27.860Z,101383.66
2023-02-05T00:48:55.191Z,101376.56
2023-02-05T00:51:22.464Z,101374.94
2023-02-05T00:53:49.671Z,101387.19
2023-02-05T00:56:16.990Z,101382.06
2023-02-05T00:58:49.972Z,101372.41
2023-02-05T01:01:18.139Z,101374.72
2023-02-05T01:03:45.444Z,101369.25
2023-02-05T01:06:12.791Z,101381.63
2023-02-05T01:08:40.103Z,101373.63
2023-02-05T01:11:11.225Z,101375.22
2023-02-05T01:13:39.507Z,101377.50
2023-02-05T01:16:07.600Z,101377.91
2023-02-05T01:18:35.057Z,101385.88
2023-02-05T01:21:02.869Z,101381.22
2023-02-05T01:23:30.204Z,101389.34
2023-02-05T01:25:57.446Z,101386.81
2023-02-05T01:28:24.694Z,101382.44
2023-02-05T01:30:52.361Z,101379.91
2023-02-05T01:33:19.988Z,101392.81
2023-02-05T01:35:47.408Z,101388.06
2023-02-05T01:38:15.557Z,101395.78
2023-02-05T01:40:43.544Z,101396.19
2023-02-05T01:43:15.150Z,101407.88
2023-02-05T01:46:24.621Z,101405.22
2023-02-05T01:48:58.109Z,101411.53
2023-02-05T01:51:29.698Z,101419.06
2023-02-05T01:53:57.229Z,101416.91
2023-02-05T01:56:35.818Z,101405.47
2023-02-05T01:59:28.389Z,101418.03
2023-02-05T02:01:56.444Z,101422.63
2023-02-05T02:05:08.881Z,101428.13
2023-02-05T02:07:36.807Z,101427.84
2023-02-05T02:10:06.042Z,101427.22
2023-02-05T02:12:38.327Z,101416.88
2023-02-05T02:15:15.905Z,101419.28
2023-02-05T02:17:52.634Z,101420.53
2023-02-05T02:20:28.574Z,101426.63
2023-02-05T02:22:55.609Z,101428.63
2023-02-05T02:25:43.878Z,101427.09
2023-02-05T02:28:39.154Z,101431.53
2023-02-05T02:31:39.774Z,101431.50
2023-02-05T02:34:41.909Z,101438.84
2023-02-05T02:38:06.898Z,101436.09
2023-02-05T02:40:55.153Z,101441.28
2023-02-05T02:43:41.852Z,101439.00
2023-02-05T02:46:41.233Z,101437.78
2023-02-05T02:49:15.701Z,101440.97
2023-02-05T02:51:43.968Z,101438.22
2023-02-05T02:54:17.438Z,101433.22
2023-02-05T02:56:48.716Z,101431.50
2023-02-05T02:59:21.174Z,101444.78
2023-02-05T03:01:56.934Z,101442.44
2023-02-05T03:04:52.422Z,101448.56
2023-02-05T03:07:46.279Z,101443.06
2023-02-05T03:10:43.343Z,101444.31
2023-02-05T03:13:13.136Z,101442.13
2023-02-05T03:15:45.198Z,101439.59
2023-02-05T03:18:15.226Z,101442.31
2023-02-05T03:21:10.029Z,101444.00
2023-02-05T03:23:37.605Z,101432.72
2023-02-05T03:26:05.176Z,101451.16
2023-02-05T03:28:42.120Z,101447.66
2023-02-05T03:31:23.830Z,101454.66
2023-02-05T03:34:35.338Z,101451.00
2023-02-05T03:37:43.667Z,101448.88
2023-02-05T03:40:50.469Z,101443.38
2023-02-05T03:43:56.944Z,101434.84
2023-02-05T03:47:06.048Z,101433.91
2023-02-05T03:50:06.194Z,101442.28
2023-02-05T03:52:45.886Z,101438.78
2023-02-05T03:55:27.611Z,101433.03
2023-02-05T03:58:09.086Z,101441.22
2023-02-05T04:00:37.454Z,101444.09
2023-02-05T04:03:05.301Z,101446.38
2023-02-05T04:05:34.426Z,101443.63
2023-02-05T04:08:03.851Z,101444.66
2023-02-05T04:10:36.907Z,101441.50
2023-02-05T04:13:04.288Z,101455.50
2023-02-05T04:15:33.551Z,101453.97
2023-02-05T04:18:03.133Z,101461.56
2023-02-05T04:20:31.239Z,101451.78
2023-02-05T04:22:59.985Z,101455.56
2023-02-05T04:25:29.726Z,101455.06
2023-02-05T04:28:01.058Z,101444.09
2023-02-05T04:30:29.100Z,101453.09
2023-02-05T04:32:56.613Z,101452.78
2023-02-05T04:35:24.973Z,101452.59
2023-02-05T04:37:52.319Z,101455.19
2023-02-05T04:40:20.674Z,101450.34
2023-02-05T04:42:48.109Z,101450.47
2023-02-05T04:45:15.450Z,101458.09
2023-02-05T04:47:42.755Z,101459.13
2023-02-05T04:50:10.416Z,101442.56
2023-02-05T04:52:37.615Z,101455.78
2023-02-05T04:55:05.825Z,101459.88
2023-02-05T04:57:33.080Z,101450.88
2023-02-05T05:00:00.391Z,101447.88
2023-02-05T05:02:27.800Z,101459.28
2023-02-05T05:04:55.076Z,101454.22
2023-02-05T05:07:22.307Z,101463.59
2023-02-05T05:09:51.017Z,101458.22
2023-02-05T05:12:19.506Z,101458.81
2023-02-05T05:14:46.831Z,101461.38
2023-02-05T05:17:14.758Z,101462.59
2023-02-05T05:19:42.425Z,101455.84
2023-02-05T05:22:09.696Z,101460.53
2023-02-05T05:24:36.870Z,101458.53
2023-02-05T05:27:04.289Z,101461.38
2023-02-05T05:29:31.546Z,101459.22
2023-02-05T05:31:58.911Z,101457.41
2023-02-05T05:34:26.110Z,101460.72
2023-02-05T05:36:53.599Z,101453.72
2023-02-05T05:39:39.876Z,101445.81
2023-02-05T05:42:25.757Z,101444.31
2023-02-05T05:44:52.999Z,101452.47
2023-02-05T05:47:21.070Z,101453.69
2023-02-05T05:49:48.404Z,101450.75
2023-02-05T05:52:16.767Z,101461.25
2023-02-05T05:54:44.078Z,101458.91
2023-02-05T05:57:11.275Z,101456.75
2023-02-05T05:59:38.560Z,101454.78
2023-02-05T06:02:06.043Z,101453.03
2023-02-05T06:04:33.373Z,101448.69
2023-02-05T06:07:02.203Z,101448.34
2023-02-05T06:09:29.381Z,101446.69
2023-02-05T06:11:56.632Z,101443.78
2023-02-05T06:14:23.921Z,101452.44
2023-02-05T06:16:52.230Z,101448.34
2023-02-05T06:19:19.528Z,101450.13
2023-02-05T06:21:46.797Z,101451.38
2023-02-05T06:24:14.043Z,101458.34
2023-02-05T06:26:41.451Z,101473.84
2023-02-05T06:29:08.690Z,101472.84
2023-02-05T06:31:37.031Z,101471.91
2023-02-05T06:34:04.411Z,101469.00
2023-02-05T06:36:31.670Z,101479.00
2023-02-05T06:38:58.937Z,101475.34
2023-02-05T06:41:26.169Z,101482.94
2023-02-05T06:43:53.517Z,101476.34
2023-02-05T06:46:20.794Z,101468.00
2023-02-05T06:48:48.179Z,101459.19
2023-02-05T06:51:15.555Z,101474.19
2023-02-05T06:53:43.644Z,101464.44
2023-02-05T06:56:10.897Z,101462.78
2023-02-05T06:58:38.209Z,101471.94
2023-02-05T07:01:05.536Z,101480.41
2023-02-05T07:03:32.750Z,101485.66
2023-02-05T07:06:06.513Z,101488.41
2023-02-05T07:08:35.109Z,101495.66
2023-02-05T07:11:03.230Z,101494.25
2023-02-05T07:13:30.864Z,101492.16
2023-02-05T07:15:58.080Z,101485.69
2023-02-05T07:18:25.551Z,101496.50
2023-02-05T07:20:53.213Z,101498.34
2023-02-05T07:23:20.531Z,101504.16
2023-02-05T07:25:47.797Z,101500.00
2023-02-05T07:28:15.078Z,101505.72
2023-02-05T07:30:42.449Z,101514.78
2023-02-05T07:33:10.118Z,101516.13
2023-02-05T07:35:39.262Z,101520.88
2023-02-05T07:38:06.508Z,101535.63
2023-02-05T07:40:33.771Z,101528.38
2023-02-05T07:43:01.002Z,101534.03
2023-02-05T07:45:28.204Z,101526.28
2023-02-05T07:47:55.686Z,101538.03
2023-02-05T07:50:22.988Z,101533.06
2023-02-05T07:52:50.181Z,101547.13
2023-02-05T07:55:17.569Z,101549.94
2023-02-05T07:57:45.009Z,101552.88
2023-02-05T08:00:13.166Z,101543.09
2023-02-05T08:02:40.569Z,101536.94
2023-02-05T08:05:10.933Z,101538.94
2023-02-05T08:07:38.838Z,101538.06
2023-02-05T08:10:06.911Z,101540.09
2023-02-05T08:12:34.237Z,101540.56
2023-02-05T08:15:03.975Z,101543.94
2023-02-05T08:17:31.318Z,101545.53
2023-02-05T08:20:03.056Z,101548.91
2023-02-05T08:22:30.447Z,101566.56
2023-02-05T08:24:57.696Z,101561.25
2023-02-05T08:27:24.969Z,101564.13
2023-02-05T08:29:52.368Z,101559.56
2023-02-05T08:32:19.636Z,101568.09
2023-02-05T08:34:46.846Z,101567.47
2023-02-05T08:37:14.131Z,101569.28
2023-02-05T08:39:41.870Z,101560.91
2023-02-05T08:42:09.076Z,101564.09
2023-02-05T08:44:36.364Z,101558.88
2023-02-05T08:47:05.014Z,101547.56
2023-02-05T08:49:32.361Z,101544.78
2023-02-05T08:51:59.721Z,101549.72
2023-02-05T08:54:27.252Z,101544.50
2023-02-05T08:56:55.140Z,101548.41
2023-02-05T08:59:22.446Z,101536.31
2023-02-05T09:01:50.225Z,101540.25
2023-02-05T09:04:22.281Z,101543.00
2023-02-05T09:06:51.572Z,101547.53
2023-02-05T09:09:19.637Z,101551.34
2023-02-05T09:11:47.718Z,101547.03
2023-02-05T09:14:15.948Z,101548.38
2023-02-05T09:16:43.170Z,101552.69
2023-02-05T09:19:10.417Z,101554.34
2023-02-05T09:21:37.645Z,101555.94
2023-02-05T09:24:05.477Z,101560.59
2023-02-05T09:26:32.820Z,101557.72
2023-02-05T09:29:00.043Z,101555.75
2023-02-05T09:31:27.813Z,101557.72
2023-02-05T09:33:55.861Z,101550.66
2023-02-05T09:36:24.163Z,101550.47
2023-02-05T09:39:04.977Z,101551.16
2023-02-05T09:42:06.844Z,101547.34
2023-02-05T09:45:06.835Z,101550.38
2023-02-05T09:47:54.509Z,101560.00
2023-02-05T09:50:29.849Z,101563.28
2023-02-05T09:53:05.986Z,101553.38
2023-02-05T09:55:47.184Z,101559.84
2023-02-05T09:58:27.365Z,101564.63
2023-02-05T10:01:07.448Z,101563.94
2023-02-05T10:03:54.944Z,101568.00
2023-02-05T10:07:20.681Z,101565.81
2023-02-05T10:10:16.028Z,101565.19
2023-02-05T10:12:59.938Z,101565.94
2023-02-05T10:16:01.411Z,101559.03
2023-02-05T10:19:03.571Z,101553.88
2023-02-05T10:22:15.067Z,101557.03
2023-02-05T10:25:34.047Z,101546.38
2023-02-05T10:28:41.134Z,101543.25
2023-02-05T10:31:55.068Z,101546.91
2023-02-05T10:35:02.782Z,101546.13
2023-02-05T10:37:52.834Z,101546.91
2023-02-05T10:40:39.296Z,101537.97
2023-02-05T10:43:37.259Z,101524.28
2023-02-05T10:46:12.328Z,101521.72
2023-02-05T10:49:04.508Z,101518.00
2023-02-05T10:51:40.826Z,101508.91
2023-02-05T10:54:33.626Z,101510.34
2023-02-05T10:57:01.487Z,101518.81
2023-02-05T10:59:33.928Z,101514.88
2023-02-05T11:02:09.171Z,101500.25
2023-02-05T11:05:02.654Z,101501.50
2023-02-05T11:07:47.014Z,101495.38
2023-02-05T11:10:27.148Z,101489.88
2023-02-05T11:13:22.082Z,101469.44
2023-02-05T11:16:02.623Z,101466.91
2023-02-05T11:18:40.619Z,101459.09
2023-02-05T11:21:09.820Z,101471.19
2023-02-05T11:23:40.241Z,101465.59
2023-02-05T11:26:23.949Z,101470.50
2023-02-05T11:28:51.358Z,101464.78
2023-02-05T11:31:34.673Z,101452.41
2023-02-05T11:34:08.030Z,101440.44
2023-02-05T11:36:39.842Z,101438.63
2023-02-05T11:39:07.893Z,101449.06
2023-02-05T11:41:48.387Z,101444.72
2023-02-05T11:44:32.211Z,101439.69
2023-02-05T11:47:02.121Z,101446.72
2023-02-05T11:49:41.271Z,101445.31
2023-02-05T11:52:13.446Z,101453.53
2023-02-05T11:54:47.526Z,101441.41
2023-02-05T11:57:17.831Z,101439.25
2023-02-05T12:00:00.537Z,101441.09
2023-02-05T12:02:31.287Z,101440.03
2023-02-05T12:05:13.045Z,101451.38
2023-02-05T12:08:18.207Z,101444.63
2023-02-05T12:11:24.581Z,101445.25
2023-02-05T12:14:03.190Z,101443.19
2023-02-05T12:17:02.832Z,101435.00
2023-02-05T12:20:26.226Z,101434.13
2023-02-05T12:23:36.328Z,101423.66
2023-02-05T12:26:36.351Z,101417.72
2023-02-05T12:29:43.361Z,101415.88
2023-02-05T12:36:29.651Z,101417.28
2023-02-05T12:39:37.101Z,101419.09
2023-02-05T12:42:31.974Z,101402.72
2023-02-05T12:45:36.034Z,101409.44
2023-02-05T12:48:59.393Z,101406.25
2023-02-05T12:52:12.869Z,101405.63
2023-02-05T12:55:42.872Z,101398.31
2023-02-05T12:58:13.766Z,101393.88
2023-02-05T13:00:54.634Z,101381.22
2023-02-05T13:03:36.408Z,101381.81
2023-02-05T13:06:33.531Z,101383.84
2023-02-05T13:09:22.145Z,101378.16
2023-02-05T13:12:04.987Z,101372.25
2023-02-05T13:14:45.076Z,101366.34
2023-02-05T13:17:28.626Z,101377.72
2023-02-05T13:20:06.105Z,101380.44
2023-02-05T13:23:04.948Z,101380.44
2023-02-05T13:25:57.386Z,101377.25
2023-02-05T13:28:44.830Z,101371.94
2023-02-05T13:31:26.895Z,101368.84
2023-02-05T13:34:02.350Z,101374.53
2023-02-05T13:37:03.364Z,101368.19
2023-02-05T13:40:36.203Z,101375.22
2023-02-05T13:43:43.313Z,101370.91
2023-02-05T13:47:02.031Z,101357.13
2023-02-05T13:50:12.417Z,101366.13
2023-02-05T13:53:24.137Z,101362.47
2023-02-05T13:56:34.242Z,101373.38
2023-02-05T13:59:12.286Z,101374.06
2023-02-05T14:01:57.780Z,101375.44
2023-02-05T14:04:34.524Z,101374.19
2023-02-05T14:07:19.576Z,101368.63
2023-02-05T14:10:00.939Z,101357.47
2023-02-05T14:12:35.473Z,101357.00
2023-02-05T14:15:18.317Z,101365.44
2023-02-05T14:17:45.376Z,101366.25
2023-02-05T14:20:37.656Z,101368.53
2023-02-05T14:23:45.897Z,101364.38
2023-02-05T14:26:13.158Z,101363.78
2023-02-05T14:28:52.175Z,101375.84
2023-02-05T14:31:49.339Z,101356.44
2023-02-05T14:34:33.941Z,101354.72
2023-02-05T14:37:01.466Z,101356.63
2023-02-05T14:39:34.829Z,101354.25
2023-02-05T14:42:06.995Z,101345.44
2023-02-05T14:44:42.266Z,101353.84
2023-02-05T14:47:31.658Z,101346.53
2023-02-05T14:50:18.644Z,101346.91
2023-02-05T14:52:56.888Z,101345.59
2023-02-05T14:55:40.201Z,101356.56
2023-02-05T14:58:25.044Z,101352.84
2023-02-05T15:01:30.856Z,101335.53
2023-02-05T15:04:02.187Z,101336.25
2023-02-05T15:06:38.911Z,101324.31
2023-02-05T15:09:17.681Z,101335.97
2023-02-05T15:12:55.030Z,101340.59
2023-02-05T15:15:37.398Z,101335.09
2023-02-05T15:18:24.930Z,101335.09
2023-02-05T15:20:56.273Z,101347.03
2023-02-05T15:23:40.876Z,101337.59
2023-02-05T15:26:52.215Z,101332.88
2023-02-05T15:29:58.675Z,101339.78
2023-02-05T15:33:01.475Z,101335.19
2023-02-05T15:35:33.048Z,101334.91
2023-02-05T15:38:35.553Z,101334.16
2023-02-05T15:41:07.660Z,101338.94
2023-02-05T15:43:34.920Z,101337.38
2023-02-05T15:46:07.559Z,101339.44
2023-02-05T15:48:38.492Z,101338.97
2023-02-05T15:51:30.713Z,101333.19
2023-02-05T15:54:02.390Z,101343.41
2023-02-05T15:56:42.276Z,101344.28
2023-02-05T15:59:21.898Z,101338.72
2023-02-05T16:02:25.849Z,101345.84
2023-02-05T16:05:18.973Z,101337.16
2023-02-05T16:07:55.305Z,101341.75
2023-02-05T16:10:27.706Z,101342.19
2023-02-05T16:13:17.865Z,101352.78
2023-02-05T16:16:10.170Z,101352.94
2023-02-05T16:18:53.501Z,101343.28
2023-02-05T16:21:31.430Z,101343.75
2023-02-05T16:24:05.080Z,101346.69
2023-02-05T16:26:40.841Z,101347.81
2023-02-05T16:29:25.634Z,101350.50
2023-02-05T16:32:04.062Z,101353.53
2023-02-05T16:34:33.815Z,101357.41
2023-02-05T16:37:10.209Z,101354.75
2023-02-05T16:39:50.865Z,101356.50
2023-02-05T16:42:31.762Z,101357.25
2023-02-05T16:45:23.426Z,101356.69
2023-02-05T16:48:26.281Z,101361.78
2023-02-05T16:50:53.778Z,101371.28
2023-02-05T16:53:26.898Z,101382.56
2023-02-05T16:56:13.828Z,101376.63
2023-02-05T16:58:52.569Z,101389.25
2023-02-05T17:01:43.257Z,101398.50
2023-02-05T17:04:31.988Z,101396.06
2023-02-05T17:07:02.326Z,101399.16
2023-02-05T17:09:40.255Z,101401.31
2023-02-05T17:12:22.392Z,101403.78
2023-02-05T17:15:20.202Z,101404.97
2023-02-05T17:18:06.273Z,101403.78
2023-02-05T17:20:34.328Z,101413.81
2023-02-05T17:23:05.201Z,101419.72
2023-02-05T17:25:55.781Z,101422.56
2023-02-05T17:28:27.468Z,101430.09
2023-02-05T17:30:59.894Z,101433.53
2023-02-05T17:33:29.831Z,101437.63
2023-02-05T17:35:57.116Z,101433.84
2023-02-05T17:38:24.421Z,101435.28
2023-02-05T17:41:11.813Z,101437.19
2023-02-05T17:43:39.269Z,101436.91
2023-02-05T17:46:14.720Z,101439.09
2023-02-05T17:48:42.345Z,101446.75
2023-02-05T17:51:21.719Z,101442.59
2023-02-05T17:53:50.202Z,101448.34
2023-02-05T17:56:19.271Z,101456.00
2023-02-05T17:58:48.436Z,101454.63
2023-02-05T18:01:16.229Z,101456.22
2023-02-05T18:03:44.013Z,101458.50
2023-02-05T18:06:15.709Z,101455.25
2023-02-05T18:08:43.413Z,101462.53
2023-02-05T18:11:11.123Z,101469.09
2023-02-05T18:13:38.623Z,101459.47
2023-02-05T18:16:06.115Z,101465.50
2023-02-05T18:18:38.986Z,101468.66
2023-02-05T18:21:07.386Z,101474.19
2023-02-05T18:23:34.723Z,101473.81
2023-02-05T18:26:04.746Z,101469.34
2023-02-05T18:28:33.131Z,101473.69
2023-02-05T18:31:07.253Z,101475.94
2023-02-05T18:33:35.361Z,101487.13
2023-02-05T18:36:07.530Z,101503.09
2023-02-05T18:38:36.481Z,101500.91
2023-02-05T18:41:22.796Z,101514.28
2023-02-05T18:43:56.055Z,101509.78
2023-02-05T18:46:24.610Z,101514.53
2023-02-05T18:48:52.336Z,101513.38
2023-02-05T18:51:23.532Z,101522.28
2023-02-05T18:53:50.782Z,101525.59
2023-02-05T18:56:28.181Z,101528.09
2023-02-05T18:59:06.943Z,101523.88
2023-02-05T19:01:38.529Z,101528.50
2023-02-05T19:04:11.337Z,101530.50
2023-02-05T19:06:48.932Z,101531.13
2023-02-05T19:09:16.662Z,101535.81
2023-02-05T19:11:44.208Z,101526.84
2023-02-05T19:14:15.520Z,101530.28
2023-02-05T19:16:44.153Z,101528.03
2023-02-05T19:19:21.793Z,101539.22
2023-02-05T19:21:55.777Z,101541.25
2023-02-05T19:24:23.504Z,101543.09
2023-02-05T19:26:51.218Z,101544.28
2023-02-05T19:29:20.406Z,101546.88
2023-02-05T19:31:49.991Z,101550.63
2023-02-05T19:34:17.312Z,101555.59
2023-02-05T19:36:44.662Z,101550.13
2023-02-05T19:39:14.770Z,101549.50
2023-02-05T19:41:45.452Z,101548.16
2023-02-05T19:44:12.950Z,101556.66
2023-02-05T19:46:47.160Z,101561.25
2023-02-05T19:49:22.095Z,101566.69
2023-02-05T19:51:55.133Z,101564.63
2023-02-05T19:54:22.855Z,101563.31
2023-02-05T19:56:50.953Z,101562.38
2023-02-05T19:59:19.339Z,101561.09
2023-02-05T20:01:47.184Z,101564.44
2023-02-05T20:04:28.448Z,101572.81
2023-02-05T20:07:00.259Z,101569.38
2023-02-05T20:09:28.450Z,101569.59
2023-02-05T20:11:55.748Z,101572.53
2023-02-05T20:14:24.165Z,101580.50
2023-02-05T20:16:52.084Z,101577.81
2023-02-05T20:19:19.791Z,101583.31
2023-02-05T20:21:47.877Z,101581.91
2023-02-05T20:24:16.364Z,101577.75
2023-02-05T20:26:47.731Z,101578.06
2023-02-05T20:29:33.825Z,101571.16
2023-02-05T20:32:01.992Z,101586.66
2023-02-05T20:34:36.030Z,101593.38
2023-02-05T20:37:07.115Z,101597.03
2023-02-05T20:39:38.480Z,101605.41
2023-02-05T20:42:05.999Z,101606.97
2023-02-05T20:44:36.283Z,101601.78
2023-02-05T20:47:07.424Z,101608.66
2023-02-05T20:49:40.054Z,101606.84
2023-02-05T20:52:09.635Z,101608.66
2023-02-05T20:54:37.507Z,101604.69
2023-02-05T20:57:04.832Z,101619.03
2023-02-05T20:59:33.709Z,101611.69
2023-02-05T21:02:02.497Z,101615.84
2023-02-05T21:04:30.398Z,101629.75
2023-02-05T21:06:58.440Z,101626.06
2023-02-05T21:09:25.730Z,101631.56
2023-02-05T21:11:55.404Z,101616.91
2023-02-05T21:14:23.913Z,101625.78
2023-02-05T21:16:51.261Z,101626.38
2023-02-05T21:19:19.505Z,101629.88
2023-02-05T21:21:46.947Z,101643.47
2023-02-05T21:24:16.225Z,101650.47
2023-02-05T21:26:49.718Z,101645.75
2023-02-05T21:29:20.854Z,101653.84
2023-02-05T21:31:55.474Z,101647.13
2023-02-05T21:34:27.203Z,101658.56
2023-02-05T21:36:55.696Z,101656.59
2023-02-05T21:39:23.872Z,101658.41
2023-02-05T21:41:51.387Z,101659.91
2023-02-05T21:44:18.695Z,101660.09
2023-02-05T21:46:45.955Z,101660.38
2023-02-05T21:49:13.425Z,101670.59
2023-02-05T21:51:42.521Z,101670.44
2023-02-05T21:54:11.769Z,101678.22
2023-02-05T21:56:43.085Z,101690.72
2023-02-05T21:59:12.843Z,101687.41
2023-02-05T22:01:42.117Z,101688.59
2023-02-05T22:04:15.171Z,101683.25
2023-02-05T22:06:43.783Z,101685.84
2023-02-05T22:09:15.633Z,101689.63
2023-02-05T22:11:44.642Z,101687.97
2023-02-05T22:14:13.486Z,101689.19
2023-02-05T22:16:41.045Z,101696.53
2023-02-05T22:19:09.174Z,101691.66
2023-02-05T22:21:40.771Z,101691.34
2023-02-05T22:24:13.446Z,101690.88
2023-02-05T22:26:41.845Z,101695.91
2023-02-05T22:29:15.148Z,101699.69
2023-02-05T22:31:44.534Z,101712.50
2023-02-05T22:34:12.541Z,101711.88
2023-02-05T22:36:39.840Z,101717.81
2023-02-05T22:39:07.578Z,101726.94
2023-02-05T22:41:39.330Z,101717.38
2023-02-05T22:44:09.328Z,101714.91
2023-02-05T22:46:43.833Z,101715.38
2023-02-05T22:49:15.292Z,101715.06
2023-02-05T22:51:43.278Z,101719.78
2023-02-05T22:54:13.523Z,101722.94
2023-02-05T22:56:40.783Z,101729.81
2023-02-05T22:59:08.770Z,101720.28
2023-02-05T23:01:38.935Z,101722.41
2023-02-05T23:04:10.477Z,101717.53
2023-02-05T23:06:41.986Z,101719.78
2023-02-05T23:09:17.109Z,101719.78
2023-02-05T23:11:45.574Z,101716.56
2023-02-05T23:14:17.033Z,101715.22
2023-02-05T23:16:47.069Z,101720.09
2023-02-05T23:19:19.691Z,101720.25
2023-02-05T23:21:48.119Z,101729.81
2023-02-05T23:24:16.454Z,101730.53
2023-02-05T23:26:47.954Z,101737.66
2023-02-05T23:29:17.714Z,101739.06
2023-02-05T23:31:45.773Z,101736.97
2023-02-05T23:34:13.721Z,101742.72
2023-02-05T23:36:41.178Z,101741.66
2023-02-05T23:39:08.736Z,101744.69
2023-02-05T23:41:36.406Z,101743.03
2023-02-05T23:44:15.533Z,101739.97
2023-02-05T23:46:45.527Z,101744.56
2023-02-05T23:49:13.643Z,101734.94
2023-02-05T23:51:41.593Z,101735.72
2023-02-05T23:54:11.264Z,101736.00
2023-02-05T23:56:39.184Z,101737.84
2023-02-05T23:59:07.688Z,101736.97
